createdAt,value
2022-11-08T00:00:34.497Z,481.00
2022-11-08T00:01:29.698Z,482.00
2022-11-08T00:02:25.064Z,479.00
2022-11-08T00:03:20.193Z,476.00
2022-11-08T00:04:15.291Z,475.00
2022-11-08T00:05:10.469Z,479.00
2022-11-08T00:06:05.576Z,478.00
2022-11-08T00:07:00.665Z,477.00
2022-11-08T00:07:55.785Z,475.00
2022-11-08T00:08:50.993Z,474.00
2022-11-08T00:09:46.133Z,475.00
2022-11-08T00:10:41.588Z,478.00
2022-11-08T00:11:36.654Z,476.00
2022-11-08T00:12:31.734Z,477.00
2022-11-08T00:13:26.819Z,483.00
2022-11-08T00:14:21.904Z,478.00
2022-11-08T00:15:17.106Z,488.00
2022-11-08T00:16:12.492Z,485.00
2022-11-08T00:17:07.604Z,480.00
2022-11-08T00:18:02.806Z,486.00
2022-11-08T00:18:57.955Z,485.00
2022-11-08T00:19:53.201Z,484.00
2022-11-08T00:20:48.438Z,484.00
2022-11-08T00:21:43.738Z,486.00
2022-11-08T00:22:38.691Z,487.00
2022-11-08T00:23:33.900Z,487.00
2022-11-08T00:24:29.295Z,479.00
2022-11-08T00:25:24.367Z,485.00
2022-11-08T00:26:19.557Z,478.00
2022-11-08T00:27:14.636Z,479.00
2022-11-08T00:28:09.870Z,482.00
2022-11-08T00:29:04.962Z,481.00
2022-11-08T00:30:00.032Z,485.00
2022-11-08T00:30:55.110Z,486.00
2022-11-08T00:31:50.170Z,485.00
2022-11-08T00:32:45.235Z,484.00
2022-11-08T00:33:40.312Z,483.00
2022-11-08T00:34:35.307Z,483.00
2022-11-08T00:35:30.308Z,486.00
2022-11-08T00:36:25.400Z,491.00
2022-11-08T00:37:20.544Z,481.00
2022-11-08T00:38:16.704Z,487.00
2022-11-08T00:39:11.331Z,488.00
2022-11-08T00:40:06.381Z,490.00
2022-11-08T00:41:01.407Z,489.00
2022-11-08T00:41:56.497Z,483.00
2022-11-08T00:42:51.619Z,493.00
2022-11-08T00:43:46.570Z,482.00
2022-11-08T00:44:41.771Z,482.00
2022-11-08T00:45:36.909Z,484.00
2022-11-08T00:46:32.039Z,478.00
2022-11-08T00:47:27.288Z,481.00
2022-11-08T00:48:22.481Z,481.00
2022-11-08T00:49:23.269Z,483.00
2022-11-08T00:50:18.458Z,477.00
2022-11-08T00:51:13.834Z,472.00
2022-11-08T00:52:09.578Z,482.00
2022-11-08T00:53:04.668Z,477.00
2022-11-08T00:53:59.755Z,479.00
2022-11-08T00:54:56.215Z,470.00
2022-11-08T00:55:51.488Z,474.00
2022-11-08T00:56:47.346Z,480.00
2022-11-08T00:57:58.445Z,478.00
2022-11-08T00:58:39.104Z,473.00
2022-11-08T00:59:33.272Z,470.00
2022-11-08T01:00:29.277Z,472.00
2022-11-08T01:01:24.637Z,475.00
2022-11-08T01:02:19.856Z,475.00
2022-11-08T01:03:15.693Z,478.00
2022-11-08T01:04:10.790Z,473.00
2022-11-08T01:05:06.681Z,475.00
2022-11-08T01:06:01.949Z,476.00
2022-11-08T01:06:56.936Z,476.00
2022-11-08T01:07:52.739Z,475.00
2022-11-08T01:08:47.971Z,472.00
2022-11-08T01:09:43.385Z,477.00
2022-11-08T01:10:39.633Z,474.00
2022-11-08T01:11:34.727Z,474.00
2022-11-08T01:12:30.518Z,477.00
2022-11-08T01:13:25.721Z,477.00
2022-11-08T01:14:21.082Z,472.00
2022-11-08T01:15:16.713Z,468.00
2022-11-08T01:16:11.806Z,471.00
2022-11-08T01:17:07.622Z,471.00
2022-11-08T01:18:02.838Z,474.00
2022-11-08T01:18:58.196Z,469.00
2022-11-08T01:19:53.883Z,470.00
2022-11-08T01:20:49.167Z,481.00
2022-11-08T01:21:44.247Z,470.00
2022-11-08T01:22:40.744Z,476.00
2022-11-08T01:23:36.003Z,474.00
2022-11-08T01:24:31.796Z,470.00
2022-11-08T01:25:27.035Z,472.00
2022-11-08T01:26:22.219Z,468.00
2022-11-08T01:27:17.991Z,468.00
2022-11-08T01:28:13.118Z,476.00
2022-11-08T01:29:08.884Z,476.00
2022-11-08T01:30:04.080Z,477.00
2022-11-08T01:30:59.360Z,470.00
2022-11-08T01:31:55.150Z,482.00
2022-11-08T01:32:50.284Z,471.00
2022-11-08T01:33:50.852Z,469.00
2022-11-08T01:34:42.863Z,461.00
2022-11-08T01:35:36.875Z,466.00
2022-11-08T01:36:32.787Z,463.00
2022-11-08T01:37:28.152Z,473.00
2022-11-08T01:38:23.266Z,471.00
2022-11-08T01:39:19.066Z,467.00
2022-11-08T01:40:14.337Z,470.00
2022-11-08T01:41:10.251Z,480.00
2022-11-08T01:42:05.334Z,471.00
2022-11-08T01:43:00.703Z,479.00
2022-11-08T01:43:56.503Z,473.00
2022-11-08T01:44:51.739Z,472.00
2022-11-08T01:45:47.127Z,478.00
2022-11-08T01:46:43.311Z,481.00
2022-11-08T01:47:38.554Z,476.00
2022-11-08T01:48:34.364Z,479.00
2022-11-08T01:49:29.611Z,483.00
2022-11-08T01:50:24.842Z,478.00
2022-11-08T01:51:19.844Z,478.00
2022-11-08T01:52:14.970Z,477.00
2022-11-08T01:53:10.056Z,476.00
2022-11-08T01:54:05.305Z,480.00
2022-11-08T01:55:00.261Z,476.00
2022-11-08T01:55:55.265Z,475.00
2022-11-08T01:56:50.320Z,478.00
2022-11-08T01:57:45.315Z,480.00
2022-11-08T01:58:40.435Z,480.00
2022-11-08T01:59:35.461Z,481.00
2022-11-08T02:00:30.506Z,481.00
2022-11-08T02:01:25.576Z,482.00
2022-11-08T02:02:20.611Z,482.00
2022-11-08T02:03:15.624Z,479.00
2022-11-08T02:04:13.135Z,478.00
2022-11-08T02:05:08.385Z,483.00
2022-11-08T02:06:03.254Z,486.00
2022-11-08T02:06:58.317Z,483.00
2022-11-08T02:07:53.383Z,479.00
2022-11-08T02:08:48.562Z,481.00
2022-11-08T02:09:43.489Z,475.00
2022-11-08T02:10:38.494Z,475.00
2022-11-08T02:11:33.592Z,479.00
2022-11-08T02:12:28.689Z,479.00
2022-11-08T02:13:23.810Z,480.00
2022-11-08T02:14:18.883Z,482.00
2022-11-08T02:15:13.991Z,477.00
2022-11-08T02:16:09.095Z,476.00
2022-11-08T02:17:04.121Z,480.00
2022-11-08T02:17:59.237Z,474.00
2022-11-08T02:18:56.118Z,477.00
2022-11-08T02:19:51.348Z,478.00
2022-11-08T02:20:47.230Z,475.00
2022-11-08T02:21:42.297Z,480.00
2022-11-08T02:22:37.695Z,473.00
2022-11-08T02:23:33.395Z,477.00
2022-11-08T02:24:28.626Z,474.00
2022-11-08T02:25:24.432Z,474.00
2022-11-08T02:26:19.662Z,474.00
2022-11-08T02:27:15.067Z,481.00
2022-11-08T02:28:10.740Z,480.00
2022-11-08T02:29:05.961Z,480.00
2022-11-08T02:30:01.126Z,482.00
2022-11-08T02:30:57.912Z,480.00
2022-11-08T02:31:52.831Z,471.00
2022-11-08T02:32:48.674Z,484.00
2022-11-08T02:33:43.872Z,479.00
2022-11-08T02:34:39.009Z,478.00
2022-11-08T02:35:34.848Z,475.00
2022-11-08T02:36:29.970Z,478.00
2022-11-08T02:37:25.750Z,478.00
2022-11-08T02:38:21.256Z,477.00
2022-11-08T02:39:16.193Z,468.00
2022-11-08T02:40:11.983Z,469.00
2022-11-08T02:41:07.275Z,471.00
2022-11-08T02:42:02.199Z,472.00
2022-11-08T02:42:58.652Z,470.00
2022-11-08T02:43:53.887Z,475.00
2022-11-08T02:44:49.703Z,475.00
2022-11-08T02:45:44.745Z,477.00
2022-11-08T02:46:39.897Z,471.00
2022-11-08T02:47:35.696Z,470.00
2022-11-08T02:48:30.928Z,472.00
2022-11-08T02:49:26.833Z,473.00
2022-11-08T02:50:21.925Z,471.00
2022-11-08T02:51:17.473Z,473.00
2022-11-08T02:52:13.184Z,473.00
2022-11-08T02:53:08.281Z,476.00
2022-11-08T02:54:03.615Z,474.00
2022-11-08T02:54:59.683Z,473.00
2022-11-08T02:55:54.962Z,471.00
2022-11-08T02:56:50.762Z,465.00
2022-11-08T02:57:45.960Z,472.00
2022-11-08T02:58:41.200Z,474.00
2022-11-08T02:59:36.866Z,472.00
2022-11-08T03:00:32.111Z,474.00
2022-11-08T03:01:28.006Z,469.00
2022-11-08T03:02:23.118Z,470.00
2022-11-08T03:03:18.556Z,469.00
2022-11-08T03:04:14.250Z,469.00
2022-11-08T03:05:09.351Z,469.00
2022-11-08T03:06:04.503Z,478.00
2022-11-08T03:07:00.798Z,477.00
2022-11-08T03:07:56.061Z,474.00
2022-11-08T03:08:51.830Z,476.00
2022-11-08T03:09:47.022Z,472.00
2022-11-08T03:10:42.215Z,476.00
2022-11-08T03:11:37.979Z,474.00
2022-11-08T03:12:33.093Z,479.00
2022-11-08T03:13:28.881Z,473.00
2022-11-08T03:14:23.951Z,472.00
2022-11-08T03:15:19.222Z,473.00
2022-11-08T03:16:14.883Z,477.00
2022-11-08T03:17:10.022Z,480.00
2022-11-08T03:18:05.203Z,476.00
2022-11-08T03:19:01.548Z,474.00
2022-11-08T03:19:56.750Z,478.00
2022-11-08T03:20:51.965Z,479.00
2022-11-08T03:21:47.098Z,477.00
2022-11-08T03:22:42.880Z,481.00
2022-11-08T03:23:38.130Z,479.00
2022-11-08T03:24:33.886Z,482.00
2022-11-08T03:25:29.215Z,479.00
2022-11-08T03:26:24.356Z,480.00
2022-11-08T03:27:20.152Z,488.00
2022-11-08T03:28:19.044Z,480.00
2022-11-08T03:29:11.376Z,484.00
2022-11-08T03:30:05.561Z,484.00
2022-11-08T03:31:01.366Z,481.00
2022-11-08T03:31:56.477Z,480.00
2022-11-08T03:32:51.674Z,489.00
2022-11-08T03:33:48.013Z,491.00
2022-11-08T03:34:43.327Z,484.00
2022-11-08T03:35:39.035Z,489.00
2022-11-08T03:36:34.131Z,484.00
2022-11-08T03:37:29.366Z,497.00
2022-11-08T03:38:24.439Z,490.00
2022-11-08T03:39:19.568Z,490.00
2022-11-08T03:40:14.767Z,494.00
2022-11-08T03:41:10.181Z,489.00
2022-11-08T03:42:05.859Z,490.00
2022-11-08T03:43:01.109Z,485.00
2022-11-08T03:43:56.200Z,482.00
2022-11-08T03:44:51.975Z,485.00
2022-11-08T03:45:47.309Z,478.00
2022-11-08T03:46:42.450Z,477.00
2022-11-08T03:47:37.539Z,481.00
2022-11-08T03:48:32.642Z,480.00
2022-11-08T03:49:27.718Z,478.00
2022-11-08T03:50:22.804Z,477.00
2022-11-08T03:51:17.924Z,468.00
2022-11-08T03:52:13.004Z,471.00
2022-11-08T03:53:08.079Z,475.00
2022-11-08T03:54:03.077Z,477.00
2022-11-08T03:54:58.147Z,473.00
2022-11-08T03:55:53.237Z,477.00
2022-11-08T03:56:48.343Z,480.00
2022-11-08T03:57:43.438Z,476.00
2022-11-08T03:58:38.541Z,476.00
2022-11-08T03:59:33.759Z,480.00
2022-11-08T04:00:28.983Z,478.00
2022-11-08T04:01:24.133Z,478.00
2022-11-08T04:02:19.134Z,483.00
2022-11-08T04:03:14.022Z,480.00
2022-11-08T04:04:09.144Z,477.00
2022-11-08T04:05:04.211Z,480.00
2022-11-08T04:05:59.424Z,475.00
2022-11-08T04:06:54.250Z,472.00
2022-11-08T04:07:49.385Z,483.00
2022-11-08T04:08:47.306Z,479.00
2022-11-08T04:09:42.380Z,476.00
2022-11-08T04:10:37.532Z,481.00
2022-11-08T04:11:32.526Z,481.00
2022-11-08T04:12:27.524Z,478.00
2022-11-08T04:13:22.590Z,486.00
2022-11-08T04:14:17.694Z,481.00
2022-11-08T04:15:12.838Z,490.00
2022-11-08T04:16:08.122Z,483.00
2022-11-08T04:17:03.205Z,483.00
2022-11-08T04:17:58.198Z,486.00
2022-11-08T04:18:53.304Z,502.00
2022-11-08T04:19:48.403Z,490.00
2022-11-08T04:20:43.592Z,489.00
2022-11-08T04:21:38.471Z,495.00
2022-11-08T04:22:34.121Z,489.00
2022-11-08T04:23:29.480Z,491.00
2022-11-08T04:24:25.120Z,485.00
2022-11-08T04:25:20.312Z,490.00
2022-11-08T04:26:15.614Z,494.00
2022-11-08T04:27:11.408Z,492.00
2022-11-08T04:28:06.527Z,496.00
2022-11-08T04:29:01.737Z,495.00
2022-11-08T04:29:58.101Z,497.00
2022-11-08T04:30:53.649Z,502.00
2022-11-08T04:31:49.195Z,508.00
2022-11-08T04:32:44.353Z,507.00
2022-11-08T04:33:39.509Z,502.00
2022-11-08T04:34:35.391Z,512.00
2022-11-08T04:35:30.749Z,504.00
2022-11-08T04:36:26.595Z,508.00
2022-11-08T04:37:21.634Z,501.00
2022-11-08T04:38:17.361Z,507.00
2022-11-08T04:39:12.799Z,502.00
2022-11-08T04:40:08.089Z,503.00
2022-11-08T04:41:03.460Z,503.00
2022-11-08T04:42:02.363Z,506.00
2022-11-08T04:42:54.903Z,499.00
2022-11-08T04:43:50.732Z,500.00
2022-11-08T04:44:46.009Z,503.00
2022-11-08T04:45:41.349Z,506.00
2022-11-08T04:46:36.951Z,507.00
2022-11-08T04:47:37.680Z,507.00
2022-11-08T04:48:29.143Z,501.00
2022-11-08T04:49:23.313Z,505.00
2022-11-08T04:50:18.418Z,510.00
2022-11-08T04:51:13.696Z,504.00
2022-11-08T04:52:08.513Z,499.00
2022-11-08T04:53:03.499Z,500.00
2022-11-08T04:53:58.539Z,499.00
2022-11-08T04:54:53.660Z,503.00
2022-11-08T04:55:48.679Z,500.00
2022-11-08T04:56:43.822Z,501.00
2022-11-08T04:57:38.880Z,512.00
2022-11-08T04:58:33.931Z,503.00
2022-11-08T04:59:28.954Z,498.00
2022-11-08T05:00:23.997Z,503.00
2022-11-08T05:01:19.094Z,498.00
2022-11-08T05:02:14.362Z,494.00
2022-11-08T05:03:12.794Z,504.00
2022-11-08T05:04:07.886Z,501.00
2022-11-08T05:05:03.131Z,504.00
2022-11-08T05:05:58.143Z,501.00
2022-11-08T05:06:53.241Z,499.00
2022-11-08T05:07:48.263Z,492.00
2022-11-08T05:08:43.304Z,485.00
2022-11-08T05:09:38.414Z,481.00
2022-11-08T05:10:33.488Z,486.00
2022-11-08T05:11:28.527Z,486.00
2022-11-08T05:12:27.004Z,481.00
2022-11-08T05:13:22.069Z,486.00
2022-11-08T05:14:17.248Z,482.00
2022-11-08T05:15:12.328Z,486.00
2022-11-08T05:16:07.571Z,484.00
2022-11-08T05:17:02.669Z,488.00
2022-11-08T05:17:57.920Z,488.00
2022-11-08T05:18:53.136Z,491.00
2022-11-08T05:19:48.158Z,493.00
2022-11-08T05:20:45.990Z,493.00
2022-11-08T05:21:41.038Z,492.00
2022-11-08T05:22:36.047Z,496.00
2022-11-08T05:23:31.145Z,487.00
2022-11-08T05:24:26.236Z,491.00
2022-11-08T05:25:21.356Z,488.00
2022-11-08T05:26:16.376Z,489.00
2022-11-08T05:27:11.418Z,490.00
2022-11-08T05:28:06.714Z,493.00
2022-11-08T05:29:02.031Z,489.00
2022-11-08T05:29:57.190Z,491.00
2022-11-08T05:30:52.491Z,494.00
2022-11-08T05:31:47.650Z,496.00
2022-11-08T05:32:42.690Z,492.00
2022-11-08T05:33:37.698Z,494.00
2022-11-08T05:34:32.727Z,495.00
2022-11-08T05:35:30.772Z,500.00
2022-11-08T05:36:25.917Z,500.00
2022-11-08T05:37:21.194Z,497.00
2022-11-08T05:38:16.642Z,500.00
2022-11-08T05:39:11.658Z,510.00
2022-11-08T05:40:07.530Z,512.00
2022-11-08T05:41:02.706Z,513.00
2022-11-08T05:41:58.160Z,519.00
2022-11-08T05:42:53.757Z,518.00
2022-11-08T05:43:49.125Z,528.00
2022-11-08T05:44:44.912Z,519.00
2022-11-08T05:45:40.103Z,510.00
2022-11-08T05:46:35.519Z,513.00
2022-11-08T05:47:31.234Z,511.00
2022-11-08T05:48:26.461Z,516.00
2022-11-08T05:49:21.624Z,506.00
2022-11-08T05:50:19.521Z,514.00
2022-11-08T05:51:13.420Z,504.00
2022-11-08T05:52:09.157Z,505.00
2022-11-08T05:53:04.428Z,494.00
2022-11-08T05:53:59.633Z,498.00
2022-11-08T05:54:55.441Z,497.00
2022-11-08T05:55:50.714Z,499.00
2022-11-08T05:56:46.369Z,499.00
2022-11-08T05:57:41.517Z,501.00
2022-11-08T05:58:36.897Z,497.00
2022-11-08T05:59:32.618Z,502.00
2022-11-08T06:00:27.801Z,500.00
2022-11-08T06:01:23.015Z,500.00
2022-11-08T06:02:19.438Z,494.00
2022-11-08T06:03:14.793Z,498.00
2022-11-08T06:04:10.383Z,499.00
2022-11-08T06:05:05.608Z,498.00
2022-11-08T06:06:00.989Z,495.00
2022-11-08T06:06:56.788Z,497.00
2022-11-08T06:07:52.057Z,500.00
2022-11-08T06:08:50.671Z,497.00
2022-11-08T06:09:43.214Z,499.00
2022-11-08T06:10:38.858Z,504.00
2022-11-08T06:11:34.227Z,507.00
2022-11-08T06:12:29.965Z,506.00
2022-11-08T06:13:25.240Z,500.00
2022-11-08T06:14:20.603Z,491.00
2022-11-08T06:15:16.362Z,492.00
2022-11-08T06:16:11.745Z,493.00
2022-11-08T06:17:07.018Z,495.00
2022-11-08T06:18:03.335Z,493.00
2022-11-08T06:18:58.666Z,495.00
2022-11-08T06:19:54.415Z,488.00
2022-11-08T06:20:49.807Z,493.00
2022-11-08T06:21:45.107Z,491.00
2022-11-08T06:22:40.880Z,488.00
2022-11-08T06:23:36.186Z,498.00
2022-11-08T06:24:32.130Z,495.00
2022-11-08T06:25:27.258Z,494.00
2022-11-08T06:26:22.586Z,500.00
2022-11-08T06:27:18.300Z,497.00
2022-11-08T06:28:13.663Z,524.00
2022-11-08T06:29:09.076Z,507.00
2022-11-08T06:30:05.244Z,517.00
2022-11-08T06:31:00.591Z,572.00
2022-11-08T06:31:56.398Z,554.00
2022-11-08T06:32:51.664Z,499.00
2022-11-08T06:33:47.259Z,495.00
2022-11-08T06:34:42.827Z,489.00
2022-11-08T06:35:38.099Z,498.00
2022-11-08T06:36:33.936Z,495.00
2022-11-08T06:37:29.391Z,490.00
2022-11-08T06:38:24.738Z,502.00
2022-11-08T06:39:20.340Z,501.00
2022-11-08T06:40:15.623Z,486.00
2022-11-08T06:41:11.005Z,489.00
2022-11-08T06:42:06.311Z,482.00
2022-11-08T06:43:02.396Z,496.00
2022-11-08T06:43:57.613Z,490.00
2022-11-08T06:44:52.965Z,486.00
2022-11-08T06:45:48.703Z,485.00
2022-11-08T06:46:44.090Z,490.00
2022-11-08T06:47:39.572Z,482.00
2022-11-08T06:48:36.343Z,492.00
2022-11-08T06:49:31.238Z,498.00
2022-11-08T06:50:27.036Z,495.00
2022-11-08T06:51:22.386Z,504.00
2022-11-08T06:52:17.907Z,505.00
2022-11-08T06:53:13.594Z,492.00
2022-11-08T06:54:11.157Z,508.00
2022-11-08T06:55:04.823Z,503.00
2022-11-08T06:56:00.225Z,519.00
2022-11-08T06:56:55.673Z,500.00
2022-11-08T06:57:51.251Z,501.00
2022-11-08T06:58:46.843Z,494.00
2022-11-08T06:59:43.389Z,485.00
2022-11-08T07:00:38.851Z,491.00
2022-11-08T07:01:34.019Z,492.00
2022-11-08T07:02:29.199Z,494.00
2022-11-08T07:03:24.033Z,634.00
2022-11-08T07:04:19.122Z,498.00
2022-11-08T07:05:14.134Z,486.00
2022-11-08T07:06:09.451Z,540.00
2022-11-08T07:07:04.339Z,512.00
2022-11-08T07:08:00.150Z,493.00
2022-11-08T07:08:54.385Z,475.00
2022-11-08T07:09:49.417Z,479.00
2022-11-08T07:10:44.494Z,501.00
2022-11-08T07:11:39.508Z,497.00
2022-11-08T07:12:34.570Z,495.00
2022-11-08T07:13:29.684Z,494.00
2022-11-08T07:14:24.738Z,487.00
2022-11-08T07:15:19.822Z,498.00
2022-11-08T07:16:17.367Z,491.00
2022-11-08T07:17:12.323Z,484.00
2022-11-08T07:18:07.600Z,497.00
2022-11-08T07:19:02.562Z,512.00
2022-11-08T07:19:57.639Z,513.00
2022-11-08T07:20:52.726Z,505.00
2022-11-08T07:21:47.766Z,511.00
2022-11-08T07:22:43.084Z,505.00
2022-11-08T07:23:39.411Z,495.00
2022-11-08T07:24:34.882Z,502.00
2022-11-08T07:25:30.825Z,507.00
2022-11-08T07:26:26.186Z,499.00
2022-11-08T07:27:21.634Z,498.00
2022-11-08T07:28:17.449Z,497.00
2022-11-08T07:29:15.951Z,500.00
2022-11-08T07:30:08.811Z,496.00
2022-11-08T07:31:04.029Z,490.00
2022-11-08T07:31:59.477Z,493.00
2022-11-08T07:32:55.250Z,485.00
2022-11-08T07:33:50.706Z,483.00
2022-11-08T07:34:46.193Z,484.00
2022-11-08T07:35:42.479Z,481.00
2022-11-08T07:36:37.911Z,486.00
2022-11-08T07:37:33.767Z,500.00
2022-11-08T07:38:29.345Z,490.00
2022-11-08T07:39:24.762Z,484.00
2022-11-08T07:40:20.536Z,482.00
2022-11-08T07:41:15.967Z,499.00
2022-11-08T07:42:11.820Z,490.00
2022-11-08T07:43:22.803Z,488.00
2022-11-08T07:44:03.605Z,497.00
2022-11-08T07:44:58.544Z,486.00
2022-11-08T07:45:54.019Z,482.00
2022-11-08T07:46:49.478Z,487.00
2022-11-08T07:47:45.792Z,498.00
2022-11-08T07:48:41.201Z,489.00
2022-11-08T07:49:37.063Z,492.00
2022-11-08T07:50:32.840Z,488.00
2022-11-08T07:51:27.996Z,485.00
2022-11-08T07:52:23.756Z,494.00
2022-11-08T07:53:19.486Z,488.00
2022-11-08T07:54:15.126Z,493.00
2022-11-08T07:55:10.548Z,495.00
2022-11-08T07:56:06.026Z,494.00
2022-11-08T07:57:01.766Z,493.00
2022-11-08T07:57:57.199Z,498.00
2022-11-08T07:58:52.617Z,505.00
2022-11-08T07:59:48.895Z,498.00
2022-11-08T08:00:44.379Z,491.00
2022-11-08T08:01:40.280Z,493.00
2022-11-08T08:02:35.635Z,488.00
2022-11-08T08:03:31.212Z,487.00
2022-11-08T08:04:26.805Z,485.00
2022-11-08T08:05:22.284Z,489.00
2022-11-08T08:06:18.171Z,490.00
2022-11-08T08:07:13.498Z,511.00
2022-11-08T08:08:08.919Z,493.00
2022-11-08T08:09:05.095Z,480.00
2022-11-08T08:10:00.141Z,479.00
2022-11-08T08:10:55.600Z,482.00
2022-11-08T08:11:51.901Z,503.00
2022-11-08T08:12:47.406Z,487.00
2022-11-08T08:13:43.254Z,478.00
2022-11-08T08:14:38.726Z,480.00
2022-11-08T08:15:34.174Z,477.00
2022-11-08T08:16:29.913Z,487.00
2022-11-08T08:17:25.328Z,473.00
2022-11-08T08:18:21.173Z,484.00
2022-11-08T08:19:16.515Z,477.00
2022-11-08T08:20:12.226Z,464.00
2022-11-08T08:21:07.378Z,471.00
2022-11-08T08:22:02.380Z,458.00
2022-11-08T08:22:57.401Z,458.00
2022-11-08T08:23:58.414Z,452.00
2022-11-08T08:24:53.203Z,457.00
2022-11-08T08:25:48.966Z,454.00
2022-11-08T08:26:44.677Z,452.00
2022-11-08T08:27:39.970Z,455.00
2022-11-08T08:28:35.463Z,451.00
2022-11-08T08:29:31.819Z,454.00
2022-11-08T08:30:27.297Z,464.00
2022-11-08T08:31:23.034Z,458.00
2022-11-08T08:32:18.399Z,459.00
2022-11-08T08:33:30.035Z,450.00
2022-11-08T08:34:10.605Z,475.00
2022-11-08T08:35:05.045Z,457.00
2022-11-08T08:36:01.304Z,473.00
2022-11-08T08:36:56.314Z,458.00
2022-11-08T08:37:51.654Z,463.00
2022-11-08T08:38:47.036Z,464.00
2022-11-08T08:39:42.430Z,457.00
2022-11-08T08:40:38.557Z,462.00
2022-11-08T08:41:33.996Z,460.00
2022-11-08T08:42:29.666Z,467.00
2022-11-08T08:43:25.225Z,463.00
2022-11-08T08:44:20.625Z,462.00
2022-11-08T08:45:16.057Z,461.00
2022-11-08T08:46:11.535Z,465.00
2022-11-08T08:47:06.690Z,470.00
2022-11-08T08:48:01.694Z,472.00
2022-11-08T08:48:56.751Z,460.00
2022-11-08T08:49:56.191Z,471.00
2022-11-08T08:50:51.707Z,467.00
2022-11-08T08:51:47.315Z,467.00
2022-11-08T08:52:42.885Z,464.00
2022-11-08T08:53:38.373Z,464.00
2022-11-08T08:54:33.869Z,466.00
2022-11-08T08:55:30.470Z,474.00
2022-11-08T08:56:25.727Z,511.00
2022-11-08T08:57:21.468Z,475.00
2022-11-08T08:58:17.072Z,473.00
2022-11-08T09:02:00.591Z,476.00
2022-11-08T09:02:54.942Z,475.00
2022-11-08T09:03:50.443Z,478.00
2022-11-08T09:04:46.777Z,478.00
2022-11-08T09:05:42.329Z,478.00
2022-11-08T09:06:37.758Z,476.00
2022-11-08T09:07:34.029Z,475.00
2022-11-08T09:08:29.462Z,479.00
2022-11-08T09:09:25.256Z,484.00
2022-11-08T09:10:20.820Z,481.00
2022-11-08T09:11:16.322Z,480.00
2022-11-08T09:12:14.602Z,462.00
2022-11-08T09:13:07.472Z,458.00
2022-11-08T09:14:03.288Z,459.00
2022-11-08T09:14:58.742Z,462.00
2022-11-08T09:15:54.199Z,473.00
2022-11-08T09:16:50.104Z,472.00
2022-11-08T09:17:45.572Z,464.00
2022-11-08T09:18:41.067Z,463.00
2022-11-08T09:19:37.585Z,463.00
2022-11-08T09:20:32.914Z,454.00
2022-11-08T09:21:28.813Z,466.00
2022-11-08T09:22:24.333Z,462.00
2022-11-08T09:23:20.145Z,460.00
2022-11-08T09:24:15.498Z,456.00
2022-11-08T09:25:10.965Z,458.00
2022-11-08T09:26:06.851Z,464.00
2022-11-08T09:27:02.226Z,474.00
2022-11-08T09:27:57.693Z,459.00
2022-11-08T09:28:53.556Z,464.00
2022-11-08T09:29:49.123Z,466.00
2022-11-08T09:30:44.273Z,468.00
2022-11-08T09:31:41.009Z,463.00
2022-11-08T09:32:59.069Z,470.00
2022-11-08T09:33:33.317Z,463.00
2022-11-08T09:34:27.780Z,459.00
2022-11-08T09:35:23.217Z,466.00
2022-11-08T09:36:18.975Z,473.00
2022-11-08T09:37:14.424Z,474.00
2022-11-08T09:38:10.294Z,461.00
2022-11-08T09:39:05.638Z,461.00
2022-11-08T09:40:01.402Z,460.00
2022-11-08T09:40:56.872Z,459.00
2022-11-08T09:41:55.494Z,455.00
2022-11-08T09:42:47.709Z,445.00
2022-11-08T09:43:43.163Z,451.00
2022-11-08T09:44:38.851Z,458.00
2022-11-08T09:45:34.320Z,477.00
2022-11-08T09:46:29.727Z,466.00
2022-11-08T09:47:26.195Z,464.00
2022-11-08T09:48:21.429Z,458.00
2022-11-08T09:49:18.307Z,463.00
2022-11-08T09:50:12.688Z,461.00
2022-11-08T09:51:08.443Z,450.00
2022-11-08T09:52:03.296Z,458.00
2022-11-08T09:52:58.435Z,459.00
2022-11-08T09:53:53.542Z,460.00
2022-11-08T09:54:48.659Z,460.00
2022-11-08T09:55:43.932Z,459.00
2022-11-08T09:56:38.669Z,460.00
2022-11-08T09:57:33.702Z,462.00
2022-11-08T09:58:28.708Z,463.00
2022-11-08T09:59:23.751Z,467.00
2022-11-08T10:00:18.745Z,467.00
2022-11-08T10:01:13.848Z,462.00
2022-11-08T10:02:08.873Z,463.00
2022-11-08T10:03:03.861Z,462.00
2022-11-08T10:03:58.886Z,464.00
2022-11-08T10:04:58.075Z,461.00
2022-11-08T10:05:53.452Z,458.00
2022-11-08T10:06:48.232Z,458.00
2022-11-08T10:07:43.193Z,458.00
2022-11-08T10:08:38.173Z,457.00
2022-11-08T10:09:33.187Z,456.00
2022-11-08T10:10:28.353Z,449.00
2022-11-08T10:11:24.645Z,450.00
2022-11-08T10:12:20.172Z,452.00
2022-11-08T10:13:15.825Z,448.00
2022-11-08T10:14:11.630Z,457.00
2022-11-08T10:15:07.162Z,458.00
2022-11-08T10:16:02.927Z,453.00
2022-11-08T10:16:58.371Z,462.00
2022-11-08T10:17:53.876Z,467.00
2022-11-08T10:18:49.684Z,464.00
2022-11-08T10:19:45.200Z,465.00
2022-11-08T10:20:40.555Z,470.00
2022-11-08T10:21:36.923Z,465.00
2022-11-08T10:22:32.367Z,467.00
2022-11-08T10:23:28.199Z,463.00
2022-11-08T10:24:23.653Z,460.00
2022-11-08T10:25:19.222Z,464.00
2022-11-08T10:26:14.821Z,460.00
2022-11-08T10:27:10.309Z,463.00
2022-11-08T10:28:06.101Z,469.00
2022-11-08T10:29:01.533Z,469.00
2022-11-08T10:29:56.918Z,469.00
2022-11-08T10:30:52.932Z,470.00
2022-11-08T10:31:48.341Z,475.00
2022-11-08T10:32:43.922Z,468.00
2022-11-08T10:33:40.248Z,461.00
2022-11-08T10:34:35.548Z,460.00
2022-11-08T10:35:31.498Z,462.00
2022-11-08T10:36:27.028Z,465.00
2022-11-08T10:37:22.347Z,454.00
2022-11-08T10:38:18.167Z,448.00
2022-11-08T10:39:13.666Z,454.00
2022-11-08T10:40:09.927Z,457.00
2022-11-08T10:41:04.967Z,453.00
2022-11-08T10:42:00.504Z,467.00
2022-11-08T10:42:56.572Z,462.00
2022-11-08T10:43:51.768Z,454.00
2022-11-08T10:44:47.298Z,460.00
2022-11-08T10:45:43.508Z,473.00
2022-11-08T10:46:39.019Z,466.00
2022-11-08T10:47:34.821Z,464.00
2022-11-08T10:48:30.361Z,457.00
2022-11-08T10:49:25.866Z,460.00
2022-11-08T10:50:21.838Z,467.00
2022-11-08T10:51:17.086Z,466.00
2022-11-08T10:52:12.912Z,461.00
2022-11-08T10:53:08.334Z,460.00
2022-11-08T10:54:59.466Z,461.00
2022-11-08T10:55:54.859Z,470.00
2022-11-08T10:56:50.272Z,452.00
2022-11-08T10:57:46.648Z,446.00
2022-11-08T10:58:42.173Z,455.00
2022-11-08T10:59:37.841Z,453.00
2022-11-08T11:00:33.974Z,453.00
2022-11-08T11:01:29.631Z,462.00
2022-11-08T11:02:25.505Z,455.00
2022-11-08T11:03:20.913Z,446.00
2022-11-08T11:04:16.330Z,461.00
2022-11-08T11:05:12.089Z,452.00
2022-11-08T11:06:07.714Z,437.00
2022-11-08T11:07:03.672Z,434.00
2022-11-08T11:07:59.151Z,466.00
2022-11-08T11:08:54.335Z,473.00
2022-11-08T11:09:50.063Z,479.00
2022-11-08T11:10:45.962Z,466.00
2022-11-08T11:11:41.053Z,457.00
2022-11-08T11:12:37.812Z,479.00
2022-11-08T11:13:33.453Z,483.00
2022-11-08T11:14:28.954Z,482.00
2022-11-08T11:15:24.492Z,488.00
2022-11-08T11:16:20.969Z,486.00
2022-11-08T11:17:16.505Z,490.00
2022-11-08T11:18:11.932Z,492.00
2022-11-08T11:19:07.516Z,486.00
2022-11-08T11:20:02.481Z,473.00
2022-11-08T11:20:57.588Z,476.00
2022-11-08T11:21:52.682Z,488.00
2022-11-08T11:22:47.670Z,484.00
2022-11-08T11:23:42.805Z,491.00
2022-11-08T11:24:37.869Z,486.00
2022-11-08T11:25:32.970Z,485.00
2022-11-08T11:26:28.037Z,489.00
2022-11-08T11:27:23.098Z,491.00
2022-11-08T11:28:18.453Z,493.00
2022-11-08T11:29:13.217Z,494.00
2022-11-08T11:30:11.899Z,493.00
2022-11-08T11:31:05.475Z,486.00
2022-11-08T11:32:00.962Z,487.00
2022-11-08T11:32:56.774Z,485.00
2022-11-08T11:33:52.437Z,490.00
2022-11-08T11:34:48.106Z,483.00
2022-11-08T11:35:43.385Z,478.00